Time;durP1;ratioP1;P1;durP2;ratioP2;P2;SDS_P1;SDS_P2;PMS_P1;PMS_P2;Temp;Humidity;BMP_temperature;BMP_pressure;BME280_temperature;BME280_humidity;BME280_pressure;Samples;Min_cycle;Max_cycle;Signal;HPM_P1;HPM_P2
2022/09/24 00:00:43;;;;;;;4.88;4.05;;;8.50;99.90;;;;;;5051782;27;20178;-76
2022/09/24 00:03:10;;;;;;;4.93;4.20;;;8.40;99.90;;;;;;5051721;28;20178;-76
2022/09/24 00:05:38;;;;;;;5.60;4.45;;;8.40;99.90;;;;;;5052058;28;20182;-76
2022/09/24 00:08:19;;;;;;;7.93;4.50;;;8.30;99.90;;;;;;5051946;28;20695;-76
2022/09/24 00:10:47;;;;;;;12.25;4.82;;;8.30;99.90;;;;;;5051689;28;20233;-76
2022/09/24 00:13:16;;;;;;;11.10;4.38;;;8.40;99.90;;;;;;5053639;28;20185;-76
2022/09/24 00:16:12;;;;;;;11.20;4.32;;;8.40;99.90;;;;;;5051505;28;20174;-76
2022/09/24 00:18:39;;;;;;;9.25;4.63;;;8.40;99.90;;;;;;5052013;28;20194;-75
2022/09/24 00:21:34;;;;;;;8.10;4.80;;;8.40;99.90;;;;;;5052089;28;20182;-75
2022/09/24 00:24:03;;;;;;;6.50;4.30;;;8.30;99.90;;;;;;5053449;27;20194;-75
2022/09/24 00:30:04;;;;;;;6.47;4.72;;;8.20;99.90;;;;;;5052842;28;20253;-75
2022/09/24 00:32:30;;;;;;;5.40;4.90;;;8.30;99.90;;;;;;5051183;28;20258;-75
2022/09/24 00:34:55;;;;;;;5.28;4.88;;;8.20;99.90;;;;;;5051694;28;20175;-75
2022/09/24 00:37:21;;;;;;;5.05;4.55;;;8.20;99.90;;;;;;5051186;28;20194;-75
2022/09/24 00:39:46;;;;;;;8.77;4.88;;;8.20;99.90;;;;;;5051272;28;20210;-75
2022/09/24 00:42:12;;;;;;;8.18;4.10;;;8.20;99.90;;;;;;5051166;28;20196;-75
2022/09/24 00:44:49;;;;;;;6.50;4.45;;;8.10;99.90;;;;;;5051408;28;20171;-75
2022/09/24 00:47:22;;;;;;;4.57;4.18;;;8.20;99.90;;;;;;5051860;28;20218;-75
2022/09/24 00:49:48;;;;;;;6.13;4.13;;;8.20;99.90;;;;;;5051420;27;20193;-75
2022/09/24 00:52:16;;;;;;;5.93;4.13;;;8.10;99.90;;;;;;5051068;28;20264;-75
2022/09/24 00:54:43;;;;;;;4.50;3.83;;;8.10;99.90;;;;;;5050988;28;20185;-75
2022/09/24 00:57:09;;;;;;;4.75;4.25;;;8.10;99.90;;;;;;5052066;28;20190;-75
2022/09/24 00:59:35;;;;;;;5.60;4.50;;;8.10;99.90;;;;;;5050947;28;20217;-75
2022/09/24 01:02:04;;;;;;;4.47;4.13;;;8.10;99.90;;;;;;5050969;28;20207;-75
2022/09/24 01:04:29;;;;;;;5.10;4.00;;;8.10;99.90;;;;;;5050831;28;20174;-75
2022/09/24 01:06:56;;;;;;;4.50;4.10;;;8.10;99.90;;;;;;5051007;28;20194;-75
2022/09/24 01:09:24;;;;;;;4.85;4.38;;;8.10;99.90;;;;;;5051493;28;20190;-75
2022/09/24 01:12:05;;;;;;;5.10;4.65;;;8.00;99.90;;;;;;5052070;28;20262;-75
2022/09/24 01:14:47;;;;;;;4.45;4.05;;;8.00;99.90;;;;;;5050650;28;20205;-75
2022/09/24 01:17:28;;;;;;;5.30;4.28;;;8.00;99.90;;;;;;5051997;28;20226;-75
2022/09/24 01:23:21;;;;;;;4.40;4.00;;;7.90;99.90;;;;;;5051919;28;20153;-75
2022/09/24 01:26:09;;;;;;;4.18;3.88;;;7.90;99.90;;;;;;5051145;28;20224;-75
2022/09/24 01:28:34;;;;;;;5.30;4.65;;;7.90;99.90;;;;;;5050329;28;20175;-75
2022/09/24 01:31:14;;;;;;;4.53;4.10;;;8.00;99.90;;;;;;5050861;28;20204;-75
2022/09/24 01:33:41;;;;;;;4.95;4.22;;;8.10;99.90;;;;;;5051610;28;20234;-75
2022/09/24 01:36:08;;;;;;;4.45;4.05;;;8.00;99.90;;;;;;5050269;28;20253;-75
2022/09/24 01:38:39;;;;;;;4.63;4.22;;;8.00;99.90;;;;;;5050158;28;20206;-75
2022/09/24 01:41:08;;;;;;;5.35;4.13;;;7.90;99.90;;;;;;5051073;28;20167;-75
2022/09/24 01:43:33;;;;;;;4.30;4.00;;;8.00;99.90;;;;;;5050481;28;20174;-75
2022/09/24 01:46:05;;;;;;;5.43;4.07;;;8.00;99.90;;;;;;5050485;28;20265;-75
2022/09/24 01:48:32;;;;;;;4.57;4.10;;;8.00;99.90;;;;;;5050315;28;20205;-75
2022/09/24 01:51:13;;;;;;;4.88;4.43;;;8.00;99.90;;;;;;5051474;28;20207;-75
2022/09/24 01:53:47;;;;;;;5.95;4.43;;;8.10;99.90;;;;;;5050903;28;20178;-75
2022/09/24 01:56:37;;;;;;;5.13;4.43;;;8.10;99.90;;;;;;5050875;28;20185;-75
2022/09/24 01:59:36;;;;;;;4.60;3.92;;;8.10;99.90;;;;;;5050714;28;20198;-75
2022/09/24 02:02:21;;;;;;;4.97;4.32;;;8.10;99.90;;;;;;5053661;28;20716;-75
2022/09/24 02:04:54;;;;;;;7.78;4.60;;;8.10;99.90;;;;;;5049972;28;20170;-75
2022/09/24 02:07:29;;;;;;;4.20;3.90;;;8.00;99.90;;;;;;5049750;28;20292;-75
2022/09/24 02:10:20;;;;;;;4.38;3.97;;;8.00;99.90;;;;;;5050620;28;20189;-75
2022/09/24 02:12:55;;;;;;;5.55;4.72;;;8.00;99.90;;;;;;5050958;27;20209;-75
2022/09/24 02:15:27;;;;;;;6.25;4.50;;;7.90;99.90;;;;;;5049695;28;20257;-75
2022/09/24 02:17:57;;;;;;;4.72;4.40;;;7.90;99.90;;;;;;5049028;28;20210;-75
2022/09/24 02:20:25;;;;;;;5.65;4.40;;;7.80;99.90;;;;;;5049942;28;20539;-75
2022/09/24 02:22:54;;;;;;;5.30;4.80;;;7.80;99.90;;;;;;5049610;28;20174;-75
2022/09/24 02:25:30;;;;;;;6.10;5.50;;;7.90;99.90;;;;;;5050330;28;20170;-75
2022/09/24 02:27:56;;;;;;;6.35;5.40;;;7.90;99.90;;;;;;5050710;28;20280;-75
2022/09/24 02:30:22;;;;;;;7.82;5.88;;;7.80;99.90;;;;;;5049548;28;20268;-75
2022/09/24 02:32:49;;;;;;;7.78;5.30;;;7.80;99.90;;;;;;5050239;28;20226;-75
2022/09/24 02:35:15;;;;;;;8.40;5.35;;;7.70;99.90;;;;;;5049428;28;20214;-75
2022/09/24 02:37:43;;;;;;;5.47;4.97;;;7.60;99.90;;;;;;5050763;28;20206;-75
2022/09/24 02:40:11;;;;;;;6.40;5.63;;;7.60;99.90;;;;;;5049917;28;20264;-75
2022/09/24 02:42:39;;;;;;;7.15;5.40;;;7.50;99.90;;;;;;5050471;28;20171;-75
2022/09/24 02:45:05;;;;;;;7.03;5.50;;;7.50;99.90;;;;;;5050417;28;20246;-75
2022/09/24 02:47:31;;;;;;;11.05;9.82;;;7.60;99.90;;;;;;5049775;28;20202;-75
2022/09/24 02:49:57;;;;;;;70.80;47.67;;;7.60;99.90;;;;;;5049914;28;20194;-75
2022/09/24 02:52:23;;;;;;;28.27;20.95;;;7.60;99.90;;;;;;5049168;28;20197;-75
2022/09/24 02:54:49;;;;;;;41.33;31.33;;;7.60;99.90;;;;;;5049151;28;20270;-75
2022/09/24 02:57:18;;;;;;;27.35;21.77;;;7.60;99.90;;;;;;5049113;28;20194;-75
2022/09/24 02:59:45;;;;;;;47.58;36.80;;;7.60;99.90;;;;;;5048985;28;20201;-75
2022/09/24 03:02:11;;;;;;;124.38;86.32;;;7.60;99.90;;;;;;5051012;28;20570;-75
2022/09/24 03:04:36;;;;;;;86.53;60.22;;;7.60;99.90;;;;;;5048941;28;20178;-75
2022/09/24 03:07:02;;;;;;;73.43;54.05;;;7.60;99.90;;;;;;5050338;28;20206;-75
2022/09/24 03:09:28;;;;;;;39.75;32.40;;;7.60;99.90;;;;;;5049037;28;20227;-75
2022/09/24 03:11:56;;;;;;;12.52;11.23;;;7.60;99.90;;;;;;5050114;28;20198;-75
2022/09/24 03:14:21;;;;;;;8.13;7.43;;;7.60;99.90;;;;;;5048887;28;20238;-75
2022/09/24 03:16:47;;;;;;;7.25;6.55;;;7.60;99.90;;;;;;5049593;28;20198;-75
2022/09/24 03:19:12;;;;;;;6.50;5.78;;;7.50;99.90;;;;;;5049137;28;20214;-75
2022/09/24 03:21:38;;;;;;;7.63;5.60;;;7.60;99.90;;;;;;5048923;28;20170;-75
2022/09/24 03:24:03;;;;;;;10.68;6.13;;;7.70;99.90;;;;;;5050130;28;20173;-75
2022/09/24 03:26:29;;;;;;;6.30;5.78;;;7.70;99.90;;;;;;5048982;28;20285;-75
2022/09/24 03:28:55;;;;;;;7.80;6.15;;;7.70;99.90;;;;;;5050249;28;20182;-75
2022/09/24 03:31:23;;;;;;;6.75;6.15;;;7.70;99.90;;;;;;5051481;28;20190;-75
2022/09/24 03:33:49;;;;;;;6.32;5.78;;;7.70;99.90;;;;;;5052179;28;20197;-75
2022/09/24 03:36:23;;;;;;;6.20;5.55;;;7.70;99.90;;;;;;5052058;28;20182;-75
2022/09/24 03:38:54;;;;;;;8.55;5.68;;;7.70;99.90;;;;;;5052981;28;20213;-75
2022/09/24 03:41:19;;;;;;;8.98;5.70;;;7.70;99.90;;;;;;5053000;28;20173;-75
2022/09/24 03:43:45;;;;;;;8.18;5.25;;;7.70;99.90;;;;;;5052034;28;20174;-75
2022/09/24 03:46:11;;;;;;;10.73;5.68;;;7.80;99.90;;;;;;5051988;28;20194;-75
2022/09/24 03:48:38;;;;;;;6.13;5.53;;;7.80;99.90;;;;;;5052492;28;20187;-75
2022/09/24 03:51:05;;;;;;;6.20;5.55;;;7.80;99.90;;;;;;5051970;28;20209;-75
2022/09/24 03:53:32;;;;;;;5.38;4.88;;;7.80;99.90;;;;;;5051835;28;20178;-75
2022/09/24 03:55:58;;;;;;;5.53;5.13;;;7.90;99.90;;;;;;5051905;28;20182;-75
2022/09/24 03:58:24;;;;;;;5.88;5.35;;;7.80;99.90;;;;;;5053148;28;20202;-75
2022/09/24 04:00:52;;;;;;;8.82;5.30;;;7.80;99.90;;;;;;5053292;28;20182;-75
2022/09/24 04:03:18;;;;;;;7.40;5.50;;;7.80;99.90;;;;;;5052935;28;20181;-75
2022/09/24 04:05:43;;;;;;;6.10;5.40;;;7.90;99.90;;;;;;5053143;28;20175;-75
2022/09/24 04:08:09;;;;;;;5.53;5.03;;;7.80;99.90;;;;;;5051695;28;20195;-75
2022/09/24 04:10:34;;;;;;;6.45;5.18;;;7.80;99.90;;;;;;5051664;28;20182;-75
2022/09/24 04:13:00;;;;;;;6.78;5.22;;;7.90;99.90;;;;;;5053046;28;20200;-75
2022/09/24 04:15:26;;;;;;;6.45;5.68;;;7.90;99.90;;;;;;5051694;28;20185;-75
2022/09/24 04:17:54;;;;;;;6.68;5.10;;;7.90;99.90;;;;;;5051275;28;20194;-75
2022/09/24 04:20:21;;;;;;;6.47;5.32;;;7.90;99.90;;;;;;5051442;28;20182;-75
2022/09/24 04:22:48;;;;;;;5.65;5.15;;;7.90;99.90;;;;;;5051458;28;20551;-75
2022/09/24 04:25:14;;;;;;;6.43;5.43;;;7.90;99.90;;;;;;5051394;28;20532;-75
2022/09/24 04:27:41;;;;;;;6.35;5.70;;;7.90;99.90;;;;;;5051310;28;20223;-75
2022/09/24 04:30:07;;;;;;;5.65;4.88;;;7.90;99.90;;;;;;5052463;28;20177;-75
2022/09/24 04:32:33;;;;;;;5.70;5.22;;;8.00;99.90;;;;;;5051592;28;20179;-75
2022/09/24 04:34:58;;;;;;;5.95;5.45;;;8.00;99.90;;;;;;5052823;28;20636;-75
2022/09/24 04:37:24;;;;;;;7.93;5.70;;;7.90;99.90;;;;;;5051256;28;20237;-75
2022/09/24 04:39:50;;;;;;;6.32;5.82;;;7.80;99.90;;;;;;5053195;28;20227;-75
2022/09/24 04:42:17;;;;;;;9.85;6.60;;;7.80;99.90;;;;;;5051976;28;20166;-75
2022/09/24 04:44:45;;;;;;;7.35;6.50;;;7.80;99.90;;;;;;5051078;28;20175;-75
2022/09/24 04:47:39;;;;;;;8.55;7.65;;;7.70;99.90;;;;;;5050997;27;20198;-75
2022/09/24 04:50:07;;;;;;;18.88;16.77;;;7.70;99.90;;;;;;5051166;28;20197;-75
2022/09/24 04:52:33;;;;;;;13.27;9.52;;;7.80;99.90;;;;;;5052095;28;20178;-75
2022/09/24 04:54:59;;;;;;;8.48;7.68;;;7.80;99.90;;;;;;5051392;28;20174;-75
2022/09/24 04:57:26;;;;;;;7.50;6.70;;;7.90;99.90;;;;;;5050832;28;20194;-75
2022/09/24 04:59:52;;;;;;;7.43;6.75;;;7.90;99.90;;;;;;5052412;28;20353;-75
2022/09/24 05:02:18;;;;;;;7.50;6.65;;;7.90;99.90;;;;;;5050787;28;20178;-75
2022/09/24 05:04:44;;;;;;;8.43;7.05;;;8.00;99.90;;;;;;5050841;28;20247;-75
2022/09/24 05:07:11;;;;;;;6.68;6.10;;;8.00;99.90;;;;;;5050760;28;20194;-75
2022/09/24 05:09:37;;;;;;;7.07;6.15;;;8.00;99.90;;;;;;5050693;28;20636;-75
2022/09/24 05:12:03;;;;;;;7.32;6.40;;;8.10;99.90;;;;;;5050835;28;20181;-75
2022/09/24 05:14:29;;;;;;;8.95;7.03;;;8.10;99.90;;;;;;5050644;28;20182;-75
2022/09/24 05:16:56;;;;;;;9.73;6.63;;;8.10;99.90;;;;;;5052044;28;20229;-75
2022/09/24 05:19:21;;;;;;;9.65;6.40;;;8.10;99.90;;;;;;5050854;28;20232;-75
2022/09/24 05:21:47;;;;;;;8.40;6.55;;;8.20;99.90;;;;;;5050908;28;20265;-75
2022/09/24 05:24:13;;;;;;;7.90;5.53;;;8.10;99.90;;;;;;5050857;28;20209;-75
2022/09/24 05:29:23;;;;;;;8.93;7.55;;;8.10;99.90;;;;;;5051915;28;20165;-75
2022/09/24 05:31:49;;;;;;;9.48;7.57;;;8.10;99.90;;;;;;5050687;28;20183;-75
2022/09/24 05:34:15;;;;;;;10.00;7.50;;;8.20;99.90;;;;;;5050441;28;20373;-75
2022/09/24 05:36:44;;;;;;;10.90;9.80;;;8.10;99.90;;;;;;5050261;28;20206;-75
2022/09/24 05:39:10;;;;;;;10.20;9.30;;;8.10;99.90;;;;;;5050258;28;20210;-75
2022/09/24 05:41:37;;;;;;;10.88;9.77;;;7.90;99.90;;;;;;5051091;28;20183;-75
2022/09/24 05:44:03;;;;;;;10.18;9.18;;;7.90;99.90;;;;;;5051041;28;20178;-75
2022/09/24 05:46:29;;;;;;;10.07;8.90;;;7.90;99.90;;;;;;5050062;28;20198;-75
2022/09/24 05:48:55;;;;;;;11.35;8.35;;;7.80;99.90;;;;;;5050135;28;20243;-75
2022/09/24 05:51:20;;;;;;;13.50;8.07;;;7.80;99.90;;;;;;5051632;28;20171;-75
2022/09/24 05:53:46;;;;;;;8.35;7.50;;;7.80;99.90;;;;;;5049343;28;20185;-75
2022/09/24 05:56:12;;;;;;;16.17;8.45;;;7.80;99.90;;;;;;5051424;28;20637;-75
2022/09/24 05:58:37;;;;;;;9.32;7.43;;;7.80;99.90;;;;;;5049952;28;20198;-75
2022/09/24 06:01:03;;;;;;;9.05;7.40;;;7.90;99.90;;;;;;5051250;28;20174;-75
2022/09/24 06:03:28;;;;;;;7.38;6.68;;;7.90;99.90;;;;;;5050241;28;20170;-75
2022/09/24 06:05:55;;;;;;;11.45;6.68;;;7.90;99.90;;;;;;5050205;28;20269;-75
2022/09/24 06:08:21;;;;;;;8.75;6.68;;;7.90;99.90;;;;;;5049699;28;20197;-75
2022/09/24 06:10:47;;;;;;;7.28;6.20;;;7.90;99.90;;;;;;5050124;28;20178;-75
2022/09/24 06:13:17;;;;;;;7.43;6.13;;;7.90;99.90;;;;;;5050379;28;20178;-75
2022/09/24 06:15:43;;;;;;;7.13;6.15;;;7.90;99.90;;;;;;5051483;28;20170;-75
2022/09/24 06:18:10;;;;;;;10.18;6.03;;;8.00;99.90;;;;;;5050672;28;20209;-75
2022/09/24 06:20:36;;;;;;;8.20;5.95;;;8.00;99.90;;;;;;5050702;28;20178;-78
2022/09/24 06:23:02;;;;;;;9.68;6.05;;;8.00;99.90;;;;;;5050515;28;20189;-76
2022/09/24 06:25:28;;;;;;;7.78;5.75;;;8.00;99.90;;;;;;5049553;28;20175;-76
2022/09/24 06:28:02;;;;;;;9.95;6.03;;;8.10;99.90;;;;;;5050503;28;20198;-76
2022/09/24 06:30:30;;;;;;;7.38;5.85;;;7.90;99.90;;;;;;5050049;28;20636;-76
2022/09/24 06:33:01;;;;;;;13.45;6.25;;;8.00;99.90;;;;;;5050314;28;20174;-77
2022/09/24 06:35:53;;;;;;;10.98;5.78;;;8.10;99.90;;;;;;5051084;28;20167;-76
2022/09/24 06:38:19;;;;;;;8.13;6.40;;;8.30;99.90;;;;;;5050596;28;20214;-77
2022/09/24 06:40:47;;;;;;;6.93;5.90;;;8.50;99.90;;;;;;5050729;28;20179;-77
2022/09/24 06:43:14;;;;;;;7.32;6.30;;;8.60;99.90;;;;;;5050906;28;20189;-76
2022/09/24 06:45:41;;;;;;;9.07;6.57;;;8.80;99.90;;;;;;5050224;28;20194;-77
2022/09/24 06:48:11;;;;;;;18.70;13.18;;;9.00;99.90;;;;;;5049598;28;20293;-77
2022/09/24 06:50:39;;;;;;;15.70;7.18;;;9.10;99.90;;;;;;5049935;28;20277;-76
2022/09/24 06:53:05;;;;;;;14.18;6.20;;;9.30;99.90;;;;;;5049279;27;20576;-76
2022/09/24 06:55:32;;;;;;;8.13;5.93;;;9.40;99.90;;;;;;5049230;28;20182;-76
2022/09/24 06:58:19;;;;;;;8.75;5.93;;;9.50;99.90;;;;;;5049682;28;20198;-76
2022/09/24 07:00:52;;;;;;;8.43;5.72;;;9.50;99.90;;;;;;5050452;28;20163;-76
2022/09/24 07:09:29;;;;;;;8.15;6.35;;;9.50;99.90;;;;;;5058173;28;20644;-76
2022/09/24 07:12:00;;;;;;;6.68;5.70;;;9.70;99.90;;;;;;5055783;28;20178;-76
2022/09/24 07:14:25;;;;;;;6.00;5.50;;;10.00;99.90;;;;;;5057141;28;20178;-76
2022/09/24 07:16:59;;;;;;;6.65;5.47;;;10.20;99.90;;;;;;5048644;28;20222;-75
2022/09/24 07:19:24;;;;;;;9.82;5.68;;;10.40;99.90;;;;;;5017147;28;20188;-75
2022/09/24 07:21:50;;;;;;;12.75;6.53;;;10.50;99.90;;;;;;5015377;28;20356;-75
2022/09/24 07:24:15;;;;;;;14.50;7.78;;;10.60;99.90;;;;;;5014950;28;20202;-76
2022/09/24 07:26:47;;;;;;;10.88;7.25;;;10.80;99.90;;;;;;5013920;28;20195;-76
2022/09/24 07:29:12;;;;;;;8.43;7.68;;;10.80;99.90;;;;;;5014063;28;20220;-77
2022/09/24 07:31:52;;;;;;;12.00;10.95;;;10.90;99.90;;;;;;5012952;28;20179;-77
2022/09/24 07:34:18;;;;;;;8.68;5.78;;;11.00;99.90;;;;;;5012792;28;20172;-76
2022/09/24 07:36:44;;;;;;;6.97;5.30;;;11.10;99.90;;;;;;5012501;28;20242;-76
2022/09/24 07:39:09;;;;;;;6.65;5.25;;;11.20;99.90;;;;;;5012552;28;20211;-76
2022/09/24 07:41:35;;;;;;;5.72;5.20;;;11.30;99.90;;;;;;5011623;28;20176;-76
2022/09/24 07:44:01;;;;;;;5.78;5.20;;;11.50;99.90;;;;;;5012254;28;20626;-83
2022/09/24 07:46:26;;;;;;;5.15;4.75;;;11.40;99.90;;;;;;5012636;28;20316;-75
2022/09/24 07:48:55;;;;;;;11.65;5.13;;;11.50;99.90;;;;;;5011224;28;20199;-75
2022/09/24 07:51:21;;;;;;;8.85;5.00;;;11.60;99.90;;;;;;5012343;28;20187;-75
2022/09/24 07:53:47;;;;;;;7.32;5.53;;;11.80;99.90;;;;;;5011736;28;20272;-75
2022/09/24 07:56:13;;;;;;;6.20;5.70;;;12.00;99.90;;;;;;5013543;28;20175;-75
2022/09/24 07:58:39;;;;;;;6.55;5.28;;;12.20;99.90;;;;;;5012308;28;20213;-76
2022/09/24 08:01:05;;;;;;;5.85;5.15;;;12.30;99.90;;;;;;5013267;28;20267;-76
2022/09/24 08:03:31;;;;;;;5.82;5.32;;;12.50;99.90;;;;;;5012348;28;20229;-76
2022/09/24 08:05:58;;;;;;;6.80;6.13;;;12.50;99.90;;;;;;5012130;28;20168;-76
2022/09/24 08:08:24;;;;;;;5.75;5.25;;;12.60;99.90;;;;;;5012317;28;20292;-76
2022/09/24 08:10:50;;;;;;;5.90;5.40;;;12.70;99.90;;;;;;5013127;28;20179;-76
2022/09/24 08:13:16;;;;;;;7.05;5.18;;;12.70;99.90;;;;;;5012755;28;20180;-76
2022/09/24 08:15:42;;;;;;;5.70;5.30;;;12.70;99.90;;;;;;5011810;28;20180;-76
2022/09/24 08:18:08;;;;;;;5.57;5.00;;;12.80;99.90;;;;;;5011753;28;20554;-76
2022/09/24 08:20:36;;;;;;;6.43;5.70;;;12.80;99.90;;;;;;5012686;28;20207;-76
2022/09/24 08:23:03;;;;;;;6.90;5.22;;;12.80;99.90;;;;;;5011646;28;20176;-76
2022/09/24 08:25:30;;;;;;;9.43;5.57;;;12.80;99.90;;;;;;5011926;28;20176;-76
2022/09/24 08:28:00;;;;;;;6.20;5.15;;;12.90;99.90;;;;;;5010938;28;20207;-76
2022/09/24 08:30:25;;;;;;;5.30;4.78;;;13.00;99.90;;;;;;5012020;28;20175;-76
2022/09/24 08:32:51;;;;;;;6.20;5.30;;;13.10;99.90;;;;;;5012001;28;20214;-76
2022/09/24 08:35:17;;;;;;;5.38;4.82;;;13.20;99.90;;;;;;5011962;28;20180;-76
2022/09/24 08:37:43;;;;;;;7.22;5.60;;;13.30;99.90;;;;;;5011729;28;20265;-76
2022/09/24 08:40:25;;;;;;;6.30;5.70;;;13.30;99.90;;;;;;5011773;28;20556;-76
2022/09/24 08:43:14;;;;;;;6.72;5.47;;;13.40;99.90;;;;;;5012245;28;20183;-76
2022/09/24 08:48:35;;;;;;;6.68;5.05;;;13.60;99.90;;;;;;5012704;28;20210;-76
2022/09/24 08:51:06;;;;;;;8.80;5.45;;;13.80;99.90;;;;;;5012287;28;20314;-76
2022/09/24 08:53:38;;;;;;;7.85;6.40;;;13.90;99.90;;;;;;5011587;28;20179;-76
2022/09/24 08:56:07;;;;;;;7.35;5.53;;;13.90;99.90;;;;;;5011509;28;20241;-76
2022/09/24 08:58:44;;;;;;;6.50;5.90;;;14.00;99.90;;;;;;5011439;28;20219;-76
2022/09/24 09:01:10;;;;;;;5.97;5.38;;;14.00;99.90;;;;;;5012822;28;20168;-76
2022/09/24 09:03:42;;;;;;;6.93;5.05;;;14.00;99.90;;;;;;5012646;28;20192;-76
2022/09/24 09:06:45;;;;;;;6.05;5.55;;;14.10;99.90;;;;;;5011258;28;20168;-76
2022/09/24 09:09:16;;;;;;;6.57;5.90;;;14.20;99.90;;;;;;5011248;28;20179;-76
2022/09/24 09:11:48;;;;;;;8.38;5.78;;;14.30;99.90;;;;;;5012511;28;20544;-76
2022/09/24 09:15:02;;;;;;;6.82;6.15;;;14.40;99.90;;;;;;5012486;28;20247;-76
2022/09/24 09:17:36;;;;;;;6.30;5.80;;;14.50;99.90;;;;;;4998207;28;20250;-76
2022/09/24 09:20:09;;;;;;;6.60;6.00;;;14.50;99.90;;;;;;5012066;28;20204;-76
2022/09/24 09:22:40;;;;;;;9.38;6.80;;;14.60;99.90;;;;;;5016176;28;20171;-77
2022/09/24 09:25:28;;;;;;;7.43;6.43;;;14.70;99.90;;;;;;5014268;28;20177;-77
2022/09/24 09:28:01;;;;;;;7.30;6.32;;;14.70;99.90;;;;;;5009955;28;20199;-77
2022/09/24 09:30:42;;;;;;;11.13;7.70;;;14.70;99.90;;;;;;5012440;28;20168;-77
2022/09/24 09:33:49;;;;;;;7.13;6.32;;;14.80;99.90;;;;;;5011559;28;20216;-77
2022/09/24 09:36:29;;;;;;;7.60;6.55;;;14.80;99.90;;;;;;5010576;28;20168;-77
2022/09/24 09:39:20;;;;;;;10.23;6.90;;;14.80;99.90;;;;;;5010641;28;20233;-75
2022/09/24 09:42:05;;;;;;;7.38;6.60;;;14.80;99.90;;;;;;5010605;28;20216;-75
2022/09/24 09:44:38;;;;;;;7.20;6.50;;;14.90;99.90;;;;;;5011684;28;20217;-75
2022/09/24 09:47:14;;;;;;;8.23;6.82;;;14.90;99.90;;;;;;5010828;28;20292;-74
2022/09/24 09:49:44;;;;;;;7.40;6.65;;;14.90;99.90;;;;;;5010453;28;20198;-74
2022/09/24 09:52:18;;;;;;;7.30;6.53;;;15.00;99.90;;;;;;5010546;28;20291;-74
2022/09/24 09:54:44;;;;;;;6.90;6.30;;;15.10;99.90;;;;;;5011463;28;20175;-74
2022/09/24 09:57:22;;;;;;;7.47;6.43;;;15.10;99.90;;;;;;5010196;28;20200;-74
2022/09/24 09:59:50;;;;;;;11.25;6.82;;;15.30;99.90;;;;;;5010230;28;20257;-74
2022/09/24 10:02:32;;;;;;;10.38;6.20;;;15.40;99.90;;;;;;5010772;28;20179;-74
2022/09/24 10:04:59;;;;;;;8.23;6.53;;;15.60;99.90;;;;;;5011416;28;20163;-74
2022/09/24 10:07:25;;;;;;;8.75;6.47;;;15.70;99.90;;;;;;5010481;28;20196;-74
2022/09/24 10:10:25;;;;;;;9.02;7.20;;;15.80;99.90;;;;;;5010233;28;20275;-74
2022/09/24 10:13:11;;;;;;;8.75;7.95;;;15.90;99.90;;;;;;4978766;28;20211;-74
2022/09/24 10:15:56;;;;;;;13.15;7.57;;;15.90;99.90;;;;;;5010912;28;20186;-74
2022/09/24 10:18:46;;;;;;;9.02;8.13;;;15.90;99.90;;;;;;5010989;28;20261;-74
2022/09/24 10:21:34;;;;;;;9.73;8.75;;;16.00;99.90;;;;;;5010580;28;20171;-75
2022/09/24 10:24:02;;;;;;;10.05;8.77;;;16.00;99.90;;;;;;5011142;28;20218;-75
2022/09/24 10:26:42;;;;;;;9.68;8.60;;;15.90;99.90;;;;;;5009981;28;20180;-75
2022/09/24 10:32:15;;;;;;;11.30;8.27;;;15.90;99.90;;;;;;5011585;28;20162;-74
2022/09/24 10:34:40;;;;;;;10.30;7.57;;;16.10;99.90;;;;;;5010575;28;20182;-74
2022/09/24 10:37:14;;;;;;;10.13;7.63;;;16.20;99.90;;;;;;5010665;28;20199;-74
2022/09/24 10:39:40;;;;;;;9.40;8.20;;;16.50;99.90;;;;;;5009348;28;20611;-74
2022/09/24 10:42:23;;;;;;;11.23;7.85;;;16.70;99.90;;;;;;5010197;28;20180;-75
2022/09/24 10:44:49;;;;;;;10.25;7.93;;;16.90;99.90;;;;;;5010070;28;20668;-75
2022/09/24 10:47:45;;;;;;;14.27;10.80;;;17.10;99.90;;;;;;5009730;28;20235;-75
2022/09/24 10:50:27;;;;;;;14.13;11.18;;;17.30;99.90;;;;;;5030857;28;20303;-75
2022/09/24 10:53:02;;;;;;;8.73;7.93;;;17.40;99.90;;;;;;5009846;28;20179;-75
2022/09/24 10:55:44;;;;;;;7.55;6.95;;;17.60;99.90;;;;;;5010051;28;20240;-76
2022/09/24 10:58:24;;;;;;;11.20;8.55;;;17.70;99.90;;;;;;5009583;28;20199;-76
2022/09/24 11:00:53;;;;;;;10.98;8.07;;;17.90;99.90;;;;;;5009734;28;20167;-77
2022/09/24 11:03:47;;;;;;;10.25;7.50;;;18.00;99.90;;;;;;5010466;28;20226;-77
2022/09/24 11:09:44;;;;;;;7.28;6.57;;;18.20;99.90;;;;;;5010730;28;20167;-77
2022/09/24 11:12:48;;;;;;;7.57;6.82;;;18.20;99.90;;;;;;5010891;28;20184;-77
2022/09/24 11:15:49;;;;;;;6.82;6.22;;;18.30;99.90;;;;;;5016210;28;20198;-77
2022/09/24 11:18:24;;;;;;;8.77;7.85;;;18.20;99.40;;;;;;5009448;28;20211;-77
2022/09/24 11:21:15;;;;;;;10.15;6.50;;;18.10;99.30;;;;;;5009509;28;20258;-77
2022/09/24 11:23:46;;;;;;;24.80;15.40;;;18.10;99.40;;;;;;5009838;28;20172;-78
2022/09/24 11:26:36;;;;;;;9.43;6.45;;;18.00;99.50;;;;;;5010678;28;20165;-77
2022/09/24 11:29:08;;;;;;;6.80;5.75;;;17.90;98.80;;;;;;5009575;28;20214;-77
2022/09/24 11:32:10;;;;;;;8.20;6.60;;;17.90;98.30;;;;;;5010014;28;20187;-77
2022/09/24 11:35:06;;;;;;;6.28;5.68;;;17.90;97.70;;;;;;5009247;28;20215;-77
2022/09/24 11:38:07;;;;;;;5.85;5.35;;;17.90;97.50;;;;;;5009113;28;20208;-76
2022/09/24 11:40:46;;;;;;;8.35;6.00;;;17.90;96.60;;;;;;4999642;28;20186;-77
2022/09/24 11:43:23;;;;;;;8.63;5.70;;;17.90;96.50;;;;;;5010529;28;20172;-77
2022/09/24 11:46:30;;;;;;;10.40;6.05;;;17.90;96.10;;;;;;5010535;28;20160;-76
2022/09/24 11:49:20;;;;;;;8.35;5.85;;;17.90;96.10;;;;;;5009429;28;20195;-75
2022/09/24 11:52:35;;;;;;;7.38;5.65;;;17.90;95.90;;;;;;5011361;28;20179;-76
2022/09/24 11:55:33;;;;;;;6.38;5.35;;;17.90;96.30;;;;;;5012953;28;20172;-76
2022/09/24 11:58:22;;;;;;;7.47;5.07;;;17.70;95.90;;;;;;5013391;28;20196;-77
2022/09/24 12:00:52;;;;;;;7.40;5.15;;;17.80;96.10;;;;;;5013130;28;20172;-77
2022/09/24 12:03:43;;;;;;;6.03;4.85;;;17.90;96.40;;;;;;5012177;28;20179;-77
2022/09/24 12:06:14;;;;;;;6.72;5.15;;;18.00;95.90;;;;;;5014232;28;20164;-76
2022/09/24 12:08:53;;;;;;;12.40;6.65;;;18.20;96.10;;;;;;5012108;28;20635;-76
2022/09/24 12:11:32;;;;;;;5.55;5.10;;;18.20;96.10;;;;;;5013809;28;20180;-77
2022/09/24 12:14:04;;;;;;;8.30;5.20;;;18.30;96.10;;;;;;5012448;28;20168;-76
2022/09/24 12:16:38;;;;;;;6.68;5.22;;;18.20;95.80;;;;;;5011647;28;20261;-76
2022/09/24 12:19:04;;;;;;;6.70;4.93;;;18.10;96.60;;;;;;5012595;28;20206;-76
2022/09/24 12:21:36;;;;;;;9.88;5.60;;;17.90;96.50;;;;;;5013691;28;20174;-76
2022/09/24 12:24:30;;;;;;;5.32;4.82;;;17.80;96.40;;;;;;5013552;28;20186;-77
2022/09/24 12:27:00;;;;;;;6.60;6.00;;;17.60;96.10;;;;;;5006096;28;20678;-76
2022/09/24 12:32:55;;;;;;;6.55;4.65;;;17.20;95.90;;;;;;5029234;28;20283;-77
2022/09/24 12:35:35;;;;;;;8.68;5.25;;;17.00;96.80;;;;;;5015041;28;20642;-77
2022/09/24 12:38:35;;;;;;;5.45;4.85;;;16.90;97.30;;;;;;5015395;28;20203;-76
2022/09/24 12:41:25;;;;;;;5.22;4.65;;;16.80;97.80;;;;;;5016185;28;20194;-76
2022/09/24 12:43:56;;;;;;;6.63;4.80;;;16.70;97.30;;;;;;5014001;28;20182;-76
2022/09/24 12:46:28;;;;;;;17.70;4.53;;;16.80;97.70;;;;;;5013348;28;20175;-76
2022/09/24 12:48:54;;;;;;;5.30;4.80;;;17.00;98.00;;;;;;5013118;28;20195;-76
2022/09/24 12:51:22;;;;;;;10.15;4.93;;;17.30;98.10;;;;;;5011247;28;20180;-76
2022/09/24 12:54:27;;;;;;;5.80;5.07;;;17.70;98.40;;;;;;5013242;28;20232;-75
2022/09/24 12:57:08;;;;;;;5.55;5.00;;;18.00;97.30;;;;;;5010977;28;20212;-76
2022/09/24 12:59:46;;;;;;;13.82;5.63;;;18.20;96.40;;;;;;5009641;28;20204;-76
2022/09/24 13:02:18;;;;;;;6.35;5.03;;;18.30;96.50;;;;;;5009790;28;20183;-76
2022/09/24 13:05:26;;;;;;;5.53;4.95;;;18.10;95.90;;;;;;5011660;28;20178;-76
2022/09/24 13:08:46;;;;;;;12.93;4.65;;;17.80;96.40;;;;;;5012570;28;20198;-76
2022/09/24 13:11:47;;;;;;;5.00;4.47;;;17.60;95.90;;;;;;5012668;28;20160;-77
2022/09/24 13:14:28;;;;;;;5.20;4.10;;;17.50;95.90;;;;;;5012544;28;20226;-76
2022/09/24 13:17:05;;;;;;;4.55;4.15;;;17.50;95.50;;;;;;5011371;28;20199;-77
2022/09/24 13:19:57;;;;;;;5.28;4.13;;;17.50;96.80;;;;;;5012410;28;20203;-77
2022/09/24 13:23:13;;;;;;;5.68;4.10;;;17.50;96.30;;;;;;5011133;28;20167;-77
2022/09/24 13:26:25;;;;;;;9.15;4.30;;;17.40;97.30;;;;;;5012090;28;20164;-77
2022/09/24 13:32:20;;;;;;;5.95;4.30;;;17.40;98.10;;;;;;5012310;28;20241;-76
2022/09/24 13:34:47;;;;;;;5.53;4.00;;;17.60;96.30;;;;;;5012037;28;20187;-76
2022/09/24 13:37:38;;;;;;;6.60;4.40;;;17.70;96.60;;;;;;5011741;28;20199;-76
2022/09/24 13:43:41;;;;;;;5.03;4.63;;;17.90;97.10;;;;;;5012189;28;20160;-76
2022/09/24 13:46:15;;;;;;;6.70;4.95;;;18.00;95.90;;;;;;5010680;28;20277;-76
2022/09/24 13:48:54;;;;;;;4.07;3.67;;;17.90;95.90;;;;;;5010734;28;20202;-76
2022/09/24 13:54:38;;;;;;;8.50;4.50;;;17.90;96.00;;;;;;5012278;28;20175;-76
2022/09/24 13:57:17;;;;;;;7.35;4.32;;;17.90;96.10;;;;;;5011141;28;20204;-76
2022/09/24 13:59:43;;;;;;;11.27;4.43;;;17.90;95.30;;;;;;5010412;28;20209;-76